sensor_id;sensor_type;location;lat;lon;timestamp;P1;durP1;ratioP1;P2;durP2;ratioP2
76357;SDS011;65185;21.060;105.826;2023-07-29T00:01:52;47.80;;;33.53;;
76357;SDS011;65185;21.060;105.826;2023-07-29T00:04:19;48.08;;;34.00;;
76357;SDS011;65185;21.060;105.826;2023-07-29T00:06:46;49.33;;;33.42;;
76357;SDS011;65185;21.060;105.826;2023-07-29T00:09:12;56.13;;;35.47;;
76357;SDS011;65185;21.060;105.826;2023-07-29T00:11:39;58.75;;;35.80;;
76357;SDS011;65185;21.060;105.826;2023-07-29T00:14:05;53.92;;;35.22;;
76357;SDS011;65185;21.060;105.826;2023-07-29T00:16:32;51.13;;;34.70;;
76357;SDS011;65185;21.060;105.826;2023-07-29T00:18:58;55.50;;;35.35;;
76357;SDS011;65185;21.060;105.826;2023-07-29T00:21:24;51.65;;;36.05;;
76357;SDS011;65185;21.060;105.826;2023-07-29T00:23:51;50.67;;;33.70;;
76357;SDS011;65185;21.060;105.826;2023-07-29T00:26:17;50.80;;;33.67;;
76357;SDS011;65185;21.060;105.826;2023-07-29T00:28:44;51.53;;;32.95;;
76357;SDS011;65185;21.060;105.826;2023-07-29T00:31:10;46.45;;;31.90;;
76357;SDS011;65185;21.060;105.826;2023-07-29T00:33:37;45.15;;;30.08;;
76357;SDS011;65185;21.060;105.826;2023-07-29T00:36:03;45.50;;;31.35;;
76357;SDS011;65185;21.060;105.826;2023-07-29T00:38:30;46.90;;;30.85;;
76357;SDS011;65185;21.060;105.826;2023-07-29T00:41:00;43.13;;;30.45;;
76357;SDS011;65185;21.060;105.826;2023-07-29T00:43:29;41.75;;;28.83;;
76357;SDS011;65185;21.060;105.826;2023-07-29T00:45:55;38.92;;;27.95;;
76357;SDS011;65185;21.060;105.826;2023-07-29T00:48:23;39.65;;;27.25;;
76357;SDS011;65185;21.060;105.826;2023-07-29T00:50:50;39.55;;;27.23;;
76357;SDS011;65185;21.060;105.826;2023-07-29T00:53:17;39.60;;;27.83;;
76357;SDS011;65185;21.060;105.826;2023-07-29T00:55:44;40.20;;;29.60;;
76357;SDS011;65185;21.060;105.826;2023-07-29T00:58:10;39.03;;;28.75;;
76357;SDS011;65185;21.060;105.826;2023-07-29T01:00:37;43.63;;;29.23;;
76357;SDS011;65185;21.060;105.826;2023-07-29T01:03:04;40.92;;;28.42;;
76357;SDS011;65185;21.060;105.826;2023-07-29T01:05:32;43.42;;;31.80;;
76357;SDS011;65185;21.060;105.826;2023-07-29T01:08:25;42.22;;;30.15;;
76357;SDS011;65185;21.060;105.826;2023-07-29T01:14:14;41.13;;;29.17;;
76357;SDS011;65185;21.060;105.826;2023-07-29T01:16:52;39.03;;;27.38;;
76357;SDS011;65185;21.060;105.826;2023-07-29T01:19:26;41.00;;;28.80;;
76357;SDS011;65185;21.060;105.826;2023-07-29T01:22:06;38.38;;;26.48;;
76357;SDS011;65185;21.060;105.826;2023-07-29T01:24:34;37.65;;;28.08;;
76357;SDS011;65185;21.060;105.826;2023-07-29T01:27:00;38.15;;;27.75;;
76357;SDS011;65185;21.060;105.826;2023-07-29T01:29:30;35.42;;;27.13;;
76357;SDS011;65185;21.060;105.826;2023-07-29T01:31:58;32.85;;;25.23;;
76357;SDS011;65185;21.060;105.826;2023-07-29T01:34:35;32.78;;;25.52;;
76357;SDS011;65185;21.060;105.826;2023-07-29T01:37:11;34.45;;;26.45;;
76357;SDS011;65185;21.060;105.826;2023-07-29T01:39:49;33.08;;;24.30;;
76357;SDS011;65185;21.060;105.826;2023-07-29T01:42:16;33.00;;;24.45;;
76357;SDS011;65185;21.060;105.826;2023-07-29T01:44:43;31.92;;;24.23;;
76357;SDS011;65185;21.060;105.826;2023-07-29T01:47:10;32.38;;;25.00;;
76357;SDS011;65185;21.060;105.826;2023-07-29T01:49:37;37.35;;;26.52;;
76357;SDS011;65185;21.060;105.826;2023-07-29T01:52:03;39.95;;;28.80;;
76357;SDS011;65185;21.060;105.826;2023-07-29T01:54:30;34.40;;;26.02;;
76357;SDS011;65185;21.060;105.826;2023-07-29T01:56:56;32.55;;;25.60;;
76357;SDS011;65185;21.060;105.826;2023-07-29T01:59:22;31.70;;;25.90;;
76357;SDS011;65185;21.060;105.826;2023-07-29T02:01:49;34.05;;;25.98;;
76357;SDS011;65185;21.060;105.826;2023-07-29T02:04:15;31.90;;;22.83;;
76357;SDS011;65185;21.060;105.826;2023-07-29T02:06:44;31.48;;;21.77;;
76357;SDS011;65185;21.060;105.826;2023-07-29T02:09:11;29.90;;;23.23;;
76357;SDS011;65185;21.060;105.826;2023-07-29T02:11:37;31.60;;;23.58;;
76357;SDS011;65185;21.060;105.826;2023-07-29T02:14:04;33.33;;;24.90;;
76357;SDS011;65185;21.060;105.826;2023-07-29T02:16:30;36.83;;;28.00;;
76357;SDS011;65185;21.060;105.826;2023-07-29T02:18:58;34.55;;;28.08;;
76357;SDS011;65185;21.060;105.826;2023-07-29T02:21:24;33.85;;;28.15;;
76357;SDS011;65185;21.060;105.826;2023-07-29T02:23:51;37.40;;;31.45;;
76357;SDS011;65185;21.060;105.826;2023-07-29T02:26:17;40.00;;;32.05;;
76357;SDS011;65185;21.060;105.826;2023-07-29T02:28:44;37.30;;;30.33;;
76357;SDS011;65185;21.060;105.826;2023-07-29T02:33:49;50.25;;;37.35;;
76357;SDS011;65185;21.060;105.826;2023-07-29T02:36:16;43.58;;;34.42;;
76357;SDS011;65185;21.060;105.826;2023-07-29T02:38:43;42.28;;;32.78;;
76357;SDS011;65185;21.060;105.826;2023-07-29T02:41:10;40.63;;;33.05;;
76357;SDS011;65185;21.060;105.826;2023-07-29T02:43:41;47.22;;;36.05;;
76357;SDS011;65185;21.060;105.826;2023-07-29T02:46:09;39.85;;;30.33;;
76357;SDS011;65185;21.060;105.826;2023-07-29T02:48:35;39.58;;;31.75;;
76357;SDS011;65185;21.060;105.826;2023-07-29T02:51:01;40.45;;;32.45;;
76357;SDS011;65185;21.060;105.826;2023-07-29T02:53:28;39.35;;;34.30;;
76357;SDS011;65185;21.060;105.826;2023-07-29T02:55:54;39.95;;;32.65;;
76357;SDS011;65185;21.060;105.826;2023-07-29T02:58:21;42.13;;;33.88;;
76357;SDS011;65185;21.060;105.826;2023-07-29T03:00:47;43.25;;;35.22;;
76357;SDS011;65185;21.060;105.826;2023-07-29T03:03:14;38.33;;;33.15;;
76357;SDS011;65185;21.060;105.826;2023-07-29T03:05:40;45.20;;;35.92;;
76357;SDS011;65185;21.060;105.826;2023-07-29T03:08:07;43.72;;;34.60;;
76357;SDS011;65185;21.060;105.826;2023-07-29T03:10:34;48.42;;;40.28;;
76357;SDS011;65185;21.060;105.826;2023-07-29T03:13:04;45.05;;;37.67;;
76357;SDS011;65185;21.060;105.826;2023-07-29T03:15:31;42.35;;;35.47;;
76357;SDS011;65185;21.060;105.826;2023-07-29T03:17:59;42.50;;;35.38;;
76357;SDS011;65185;21.060;105.826;2023-07-29T03:20:25;42.10;;;34.42;;
76357;SDS011;65185;21.060;105.826;2023-07-29T03:22:52;47.83;;;37.42;;
76357;SDS011;65185;21.060;105.826;2023-07-29T03:25:18;42.28;;;35.25;;
76357;SDS011;65185;21.060;105.826;2023-07-29T03:27:45;51.00;;;43.20;;
76357;SDS011;65185;21.060;105.826;2023-07-29T03:30:14;42.90;;;38.05;;
76357;SDS011;65185;21.060;105.826;2023-07-29T03:32:43;44.05;;;36.30;;
76357;SDS011;65185;21.060;105.826;2023-07-29T03:35:10;44.92;;;36.40;;
76357;SDS011;65185;21.060;105.826;2023-07-29T03:37:37;39.13;;;33.83;;
76357;SDS011;65185;21.060;105.826;2023-07-29T03:40:04;45.15;;;37.08;;
76357;SDS011;65185;21.060;105.826;2023-07-29T03:42:32;43.28;;;35.63;;
76357;SDS011;65185;21.060;105.826;2023-07-29T03:44:58;39.33;;;34.45;;
76357;SDS011;65185;21.060;105.826;2023-07-29T03:47:25;39.03;;;32.97;;
76357;SDS011;65185;21.060;105.826;2023-07-29T03:49:51;40.97;;;33.08;;
76357;SDS011;65185;21.060;105.826;2023-07-29T03:52:17;39.00;;;33.38;;
76357;SDS011;65185;21.060;105.826;2023-07-29T03:54:44;34.35;;;30.02;;
76357;SDS011;65185;21.060;105.826;2023-07-29T03:57:11;38.00;;;29.98;;
76357;SDS011;65185;21.060;105.826;2023-07-29T03:59:37;37.88;;;30.88;;
76357;SDS011;65185;21.060;105.826;2023-07-29T04:02:04;30.15;;;26.67;;
76357;SDS011;65185;21.060;105.826;2023-07-29T04:04:30;34.63;;;28.05;;
76357;SDS011;65185;21.060;105.826;2023-07-29T04:06:57;35.20;;;27.80;;
76357;SDS011;65185;21.060;105.826;2023-07-29T04:09:23;37.33;;;28.42;;
76357;SDS011;65185;21.060;105.826;2023-07-29T04:11:50;34.05;;;27.58;;
76357;SDS011;65185;21.060;105.826;2023-07-29T04:14:18;37.53;;;29.75;;
76357;SDS011;65185;21.060;105.826;2023-07-29T04:16:44;40.03;;;30.35;;
76357;SDS011;65185;21.060;105.826;2023-07-29T04:19:11;31.50;;;28.02;;
76357;SDS011;65185;21.060;105.826;2023-07-29T04:21:37;33.05;;;28.02;;
76357;SDS011;65185;21.060;105.826;2023-07-29T04:24:04;32.97;;;28.38;;
76357;SDS011;65185;21.060;105.826;2023-07-29T04:26:30;30.83;;;27.48;;
76357;SDS011;65185;21.060;105.826;2023-07-29T04:28:57;32.35;;;26.77;;
76357;SDS011;65185;21.060;105.826;2023-07-29T04:31:23;31.83;;;27.58;;
76357;SDS011;65185;21.060;105.826;2023-07-29T04:33:50;32.83;;;28.15;;
76357;SDS011;65185;21.060;105.826;2023-07-29T04:36:17;29.67;;;25.08;;
76357;SDS011;65185;21.060;105.826;2023-07-29T04:38:43;30.38;;;25.77;;
76357;SDS011;65185;21.060;105.826;2023-07-29T04:41:10;31.65;;;26.85;;
76357;SDS011;65185;21.060;105.826;2023-07-29T04:43:36;32.92;;;26.20;;
76357;SDS011;65185;21.060;105.826;2023-07-29T04:46:05;25.92;;;21.73;;
76357;SDS011;65185;21.060;105.826;2023-07-29T04:48:33;26.65;;;22.30;;
76357;SDS011;65185;21.060;105.826;2023-07-29T04:51:00;24.58;;;20.88;;
76357;SDS011;65185;21.060;105.826;2023-07-29T04:53:27;29.52;;;24.80;;
76357;SDS011;65185;21.060;105.826;2023-07-29T04:55:53;27.25;;;20.80;;
76357;SDS011;65185;21.060;105.826;2023-07-29T04:58:19;24.95;;;20.35;;
76357;SDS011;65185;21.060;105.826;2023-07-29T05:00:46;29.77;;;22.40;;
76357;SDS011;65185;21.060;105.826;2023-07-29T05:03:13;27.30;;;21.60;;
76357;SDS011;65185;21.060;105.826;2023-07-29T05:05:39;27.65;;;20.83;;
76357;SDS011;65185;21.060;105.826;2023-07-29T05:08:06;24.83;;;22.13;;
76357;SDS011;65185;21.060;105.826;2023-07-29T05:10:32;28.08;;;20.92;;
76357;SDS011;65185;21.060;105.826;2023-07-29T05:13:00;28.17;;;22.05;;
76357;SDS011;65185;21.060;105.826;2023-07-29T05:15:27;29.88;;;21.80;;
76357;SDS011;65185;21.060;105.826;2023-07-29T05:17:53;27.75;;;23.08;;
76357;SDS011;65185;21.060;105.826;2023-07-29T05:20:20;25.30;;;21.13;;
76357;SDS011;65185;21.060;105.826;2023-07-29T05:22:46;30.10;;;22.48;;
76357;SDS011;65185;21.060;105.826;2023-07-29T05:25:13;27.30;;;21.77;;
76357;SDS011;65185;21.060;105.826;2023-07-29T05:27:39;26.92;;;21.80;;
76357;SDS011;65185;21.060;105.826;2023-07-29T05:30:07;28.15;;;22.88;;
76357;SDS011;65185;21.060;105.826;2023-07-29T05:32:34;24.38;;;19.65;;
76357;SDS011;65185;21.060;105.826;2023-07-29T05:35:00;25.50;;;20.63;;
76357;SDS011;65185;21.060;105.826;2023-07-29T05:37:27;25.88;;;21.92;;
76357;SDS011;65185;21.060;105.826;2023-07-29T05:39:53;30.13;;;23.42;;
76357;SDS011;65185;21.060;105.826;2023-07-29T05:42:19;25.90;;;22.70;;
76357;SDS011;65185;21.060;105.826;2023-07-29T05:44:46;28.70;;;22.73;;
76357;SDS011;65185;21.060;105.826;2023-07-29T05:47:12;25.67;;;19.45;;
76357;SDS011;65185;21.060;105.826;2023-07-29T05:49:39;24.17;;;19.48;;
76357;SDS011;65185;21.060;105.826;2023-07-29T05:52:05;28.70;;;22.52;;
76357;SDS011;65185;21.060;105.826;2023-07-29T05:54:32;30.92;;;23.83;;
76357;SDS011;65185;21.060;105.826;2023-07-29T05:56:59;29.10;;;23.17;;
76357;SDS011;65185;21.060;105.826;2023-07-29T05:59:25;26.10;;;22.25;;
76357;SDS011;65185;21.060;105.826;2023-07-29T06:01:54;27.90;;;23.25;;
76357;SDS011;65185;21.060;105.826;2023-07-29T06:04:22;33.33;;;24.95;;
76357;SDS011;65185;21.060;105.826;2023-07-29T06:06:48;33.10;;;24.70;;
76357;SDS011;65185;21.060;105.826;2023-07-29T06:09:16;26.17;;;22.75;;
76357;SDS011;65185;21.060;105.826;2023-07-29T06:11:42;29.63;;;24.40;;
76357;SDS011;65185;21.060;105.826;2023-07-29T06:14:09;30.10;;;24.52;;
76357;SDS011;65185;21.060;105.826;2023-07-29T06:16:35;28.17;;;23.17;;
76357;SDS011;65185;21.060;105.826;2023-07-29T06:19:02;28.63;;;23.05;;
76357;SDS011;65185;21.060;105.826;2023-07-29T06:21:29;30.02;;;23.13;;
76357;SDS011;65185;21.060;105.826;2023-07-29T06:23:56;27.63;;;22.65;;
76357;SDS011;65185;21.060;105.826;2023-07-29T06:26:23;27.85;;;24.00;;
76357;SDS011;65185;21.060;105.826;2023-07-29T06:28:49;27.23;;;23.23;;
76357;SDS011;65185;21.060;105.826;2023-07-29T06:31:15;29.02;;;23.90;;
76357;SDS011;65185;21.060;105.826;2023-07-29T06:33:42;29.88;;;24.50;;
76357;SDS011;65185;21.060;105.826;2023-07-29T06:36:08;28.13;;;24.17;;
76357;SDS011;65185;21.060;105.826;2023-07-29T06:38:35;31.42;;;25.27;;
76357;SDS011;65185;21.060;105.826;2023-07-29T06:41:02;30.42;;;24.77;;
76357;SDS011;65185;21.060;105.826;2023-07-29T06:43:28;30.73;;;25.20;;
76357;SDS011;65185;21.060;105.826;2023-07-29T06:45:55;31.02;;;26.75;;
76357;SDS011;65185;21.060;105.826;2023-07-29T06:48:21;30.65;;;24.75;;
76357;SDS011;65185;21.060;105.826;2023-07-29T06:50:48;30.60;;;24.98;;
76357;SDS011;65185;21.060;105.826;2023-07-29T06:53:16;32.20;;;24.33;;
76357;SDS011;65185;21.060;105.826;2023-07-29T06:55:43;28.70;;;23.38;;
76357;SDS011;65185;21.060;105.826;2023-07-29T06:58:10;30.17;;;24.17;;
76357;SDS011;65185;21.060;105.826;2023-07-29T07:00:36;28.67;;;24.63;;
76357;SDS011;65185;21.060;105.826;2023-07-29T07:03:03;29.20;;;24.27;;
76357;SDS011;65185;21.060;105.826;2023-07-29T07:05:29;30.17;;;25.40;;
76357;SDS011;65185;21.060;105.826;2023-07-29T07:07:56;29.08;;;22.50;;
76357;SDS011;65185;21.060;105.826;2023-07-29T07:10:22;29.60;;;23.40;;
76357;SDS011;65185;21.060;105.826;2023-07-29T07:12:49;28.27;;;22.77;;
76357;SDS011;65185;21.060;105.826;2023-07-29T07:15:15;28.38;;;23.48;;
76357;SDS011;65185;21.060;105.826;2023-07-29T07:17:42;28.05;;;23.08;;
76357;SDS011;65185;21.060;105.826;2023-07-29T07:20:08;29.95;;;23.45;;
76357;SDS011;65185;21.060;105.826;2023-07-29T07:22:35;30.88;;;24.98;;
76357;SDS011;65185;21.060;105.826;2023-07-29T07:25:02;32.45;;;25.50;;
76357;SDS011;65185;21.060;105.826;2023-07-29T07:27:29;34.95;;;25.58;;
76357;SDS011;65185;21.060;105.826;2023-07-29T07:29:55;29.88;;;24.10;;
76357;SDS011;65185;21.060;105.826;2023-07-29T07:32:22;29.45;;;24.92;;
76357;SDS011;65185;21.060;105.826;2023-07-29T07:34:48;34.80;;;29.08;;
76357;SDS011;65185;21.060;105.826;2023-07-29T07:37:15;30.38;;;25.85;;
76357;SDS011;65185;21.060;105.826;2023-07-29T07:39:41;32.22;;;25.77;;
76357;SDS011;65185;21.060;105.826;2023-07-29T07:42:08;30.73;;;25.83;;
76357;SDS011;65185;21.060;105.826;2023-07-29T07:44:34;31.42;;;25.83;;
76357;SDS011;65185;21.060;105.826;2023-07-29T07:47:01;30.67;;;25.85;;
76357;SDS011;65185;21.060;105.826;2023-07-29T07:49:27;29.85;;;25.75;;
76357;SDS011;65185;21.060;105.826;2023-07-29T07:51:54;32.38;;;26.88;;
76357;SDS011;65185;21.060;105.826;2023-07-29T07:54:20;30.90;;;26.25;;
76357;SDS011;65185;21.060;105.826;2023-07-29T07:56:47;35.47;;;26.98;;
76357;SDS011;65185;21.060;105.826;2023-07-29T07:59:13;30.85;;;25.10;;
76357;SDS011;65185;21.060;105.826;2023-07-29T08:01:39;29.60;;;25.48;;
76357;SDS011;65185;21.060;105.826;2023-07-29T08:04:06;32.33;;;26.45;;
76357;SDS011;65185;21.060;105.826;2023-07-29T08:06:33;32.53;;;26.23;;
76357;SDS011;65185;21.060;105.826;2023-07-29T08:09:00;30.65;;;26.52;;
76357;SDS011;65185;21.060;105.826;2023-07-29T08:11:27;33.20;;;26.38;;
76357;SDS011;65185;21.060;105.826;2023-07-29T08:13:54;30.85;;;25.60;;
76357;SDS011;65185;21.060;105.826;2023-07-29T08:16:20;27.48;;;24.45;;
76357;SDS011;65185;21.060;105.826;2023-07-29T08:18:47;31.40;;;27.20;;
76357;SDS011;65185;21.060;105.826;2023-07-29T08:21:13;32.25;;;27.48;;
76357;SDS011;65185;21.060;105.826;2023-07-29T08:23:40;36.92;;;27.48;;
76357;SDS011;65185;21.060;105.826;2023-07-29T08:26:06;34.13;;;27.13;;
76357;SDS011;65185;21.060;105.826;2023-07-29T08:28:37;33.53;;;26.88;;
76357;SDS011;65185;21.060;105.826;2023-07-29T08:31:05;37.03;;;30.73;;
76357;SDS011;65185;21.060;105.826;2023-07-29T08:33:32;37.67;;;31.92;;
76357;SDS011;65185;21.060;105.826;2023-07-29T08:35:59;45.75;;;33.92;;
76357;SDS011;65185;21.060;105.826;2023-07-29T08:38:25;39.20;;;33.35;;
76357;SDS011;65185;21.060;105.826;2023-07-29T08:41:13;47.03;;;35.88;;
76357;SDS011;65185;21.060;105.826;2023-07-29T08:43:49;39.60;;;34.20;;
76357;SDS011;65185;21.060;105.826;2023-07-29T08:46:38;41.63;;;34.05;;
76357;SDS011;65185;21.060;105.826;2023-07-29T08:49:05;35.90;;;31.55;;
76357;SDS011;65185;21.060;105.826;2023-07-29T08:51:33;39.00;;;31.42;;
76357;SDS011;65185;21.060;105.826;2023-07-29T08:54:00;34.55;;;30.33;;
76357;SDS011;65185;21.060;105.826;2023-07-29T08:56:27;37.47;;;32.80;;
76357;SDS011;65185;21.060;105.826;2023-07-29T08:58:55;36.20;;;29.67;;
76357;SDS011;65185;21.060;105.826;2023-07-29T09:01:23;32.30;;;28.83;;
76357;SDS011;65185;21.060;105.826;2023-07-29T09:03:49;38.28;;;32.53;;
76357;SDS011;65185;21.060;105.826;2023-07-29T09:06:16;35.35;;;29.60;;
76357;SDS011;65185;21.060;105.826;2023-07-29T09:08:43;34.80;;;28.95;;
76357;SDS011;65185;21.060;105.826;2023-07-29T09:11:12;32.25;;;27.23;;
76357;SDS011;65185;21.060;105.826;2023-07-29T09:13:42;33.58;;;26.90;;
76357;SDS011;65185;21.060;105.826;2023-07-29T09:16:09;27.98;;;23.98;;
76357;SDS011;65185;21.060;105.826;2023-07-29T09:18:36;29.85;;;25.20;;
76357;SDS011;65185;21.060;105.826;2023-07-29T09:21:04;29.60;;;26.45;;
76357;SDS011;65185;21.060;105.826;2023-07-29T09:23:42;35.03;;;31.20;;
76357;SDS011;65185;21.060;105.826;2023-07-29T09:26:10;32.78;;;28.42;;
76357;SDS011;65185;21.060;105.826;2023-07-29T09:28:37;34.80;;;28.75;;
76357;SDS011;65185;21.060;105.826;2023-07-29T09:31:05;35.05;;;28.27;;
76357;SDS011;65185;21.060;105.826;2023-07-29T09:33:35;34.63;;;29.35;;
76357;SDS011;65185;21.060;105.826;2023-07-29T09:36:10;38.40;;;30.48;;
76357;SDS011;65185;21.060;105.826;2023-07-29T09:38:37;34.90;;;29.60;;
76357;SDS011;65185;21.060;105.826;2023-07-29T09:41:04;33.97;;;29.10;;
76357;SDS011;65185;21.060;105.826;2023-07-29T09:43:32;32.25;;;26.75;;
76357;SDS011;65185;21.060;105.826;2023-07-29T09:46:00;31.60;;;25.42;;
76357;SDS011;65185;21.060;105.826;2023-07-29T09:48:27;31.08;;;23.48;;
76357;SDS011;65185;21.060;105.826;2023-07-29T09:50:57;27.73;;;20.20;;
76357;SDS011;65185;21.060;105.826;2023-07-29T09:53:24;27.15;;;20.50;;
76357;SDS011;65185;21.060;105.826;2023-07-29T09:55:50;36.38;;;23.20;;
76357;SDS011;65185;21.060;105.826;2023-07-29T09:58:21;29.40;;;20.38;;
76357;SDS011;65185;21.060;105.826;2023-07-29T10:00:53;22.83;;;16.35;;
76357;SDS011;65185;21.060;105.826;2023-07-29T10:03:20;21.60;;;11.85;;
76357;SDS011;65185;21.060;105.826;2023-07-29T10:05:47;15.55;;;6.45;;
76357;SDS011;65185;21.060;105.826;2023-07-29T10:08:15;15.18;;;6.40;;
76357;SDS011;65185;21.060;105.826;2023-07-29T10:10:43;14.63;;;8.30;;
76357;SDS011;65185;21.060;105.826;2023-07-29T10:13:10;18.25;;;10.75;;
76357;SDS011;65185;21.060;105.826;2023-07-29T10:15:38;23.63;;;13.05;;
76357;SDS011;65185;21.060;105.826;2023-07-29T10:18:06;23.70;;;12.73;;
76357;SDS011;65185;21.060;105.826;2023-07-29T10:20:33;21.88;;;12.82;;
76357;SDS011;65185;21.060;105.826;2023-07-29T10:23:01;19.40;;;12.23;;
76357;SDS011;65185;21.060;105.826;2023-07-29T10:25:36;16.85;;;10.93;;
76357;SDS011;65185;21.060;105.826;2023-07-29T10:28:06;18.15;;;12.75;;
76357;SDS011;65185;21.060;105.826;2023-07-29T10:30:33;21.15;;;13.63;;
76357;SDS011;65185;21.060;105.826;2023-07-29T10:33:04;20.20;;;15.70;;
76357;SDS011;65185;21.060;105.826;2023-07-29T10:35:34;24.08;;;17.58;;
76357;SDS011;65185;21.060;105.826;2023-07-29T10:38:03;27.92;;;19.10;;
76357;SDS011;65185;21.060;105.826;2023-07-29T10:40:52;26.95;;;20.25;;
76357;SDS011;65185;21.060;105.826;2023-07-29T10:46:14;35.42;;;22.95;;
76357;SDS011;65185;21.060;105.826;2023-07-29T10:51:25;30.20;;;22.63;;
76357;SDS011;65185;21.060;105.826;2023-07-29T10:53:55;29.50;;;22.90;;
76357;SDS011;65185;21.060;105.826;2023-07-29T10:56:27;30.23;;;22.55;;
76357;SDS011;65185;21.060;105.826;2023-07-29T11:01:42;27.23;;;21.05;;
76357;SDS011;65185;21.060;105.826;2023-07-29T11:09:40;28.60;;;22.35;;
76357;SDS011;65185;21.060;105.826;2023-07-29T11:17:39;29.85;;;24.00;;
76357;SDS011;65185;21.060;105.826;2023-07-29T11:20:07;28.20;;;23.15;;
76357;SDS011;65185;21.060;105.826;2023-07-29T11:22:35;27.23;;;22.92;;
76357;SDS011;65185;21.060;105.826;2023-07-29T11:25:03;27.20;;;22.40;;
76357;SDS011;65185;21.060;105.826;2023-07-29T11:27:30;26.88;;;22.45;;
76357;SDS011;65185;21.060;105.826;2023-07-29T11:29:58;26.23;;;22.60;;
76357;SDS011;65185;21.060;105.826;2023-07-29T11:32:30;28.75;;;22.27;;
76357;SDS011;65185;21.060;105.826;2023-07-29T11:35:08;26.08;;;22.58;;
76357;SDS011;65185;21.060;105.826;2023-07-29T11:37:36;28.45;;;24.30;;
76357;SDS011;65185;21.060;105.826;2023-07-29T11:40:04;27.15;;;22.83;;
76357;SDS011;65185;21.060;105.826;2023-07-29T11:42:38;26.48;;;21.90;;
76357;SDS011;65185;21.060;105.826;2023-07-29T11:45:07;27.17;;;22.25;;
76357;SDS011;65185;21.060;105.826;2023-07-29T11:47:35;26.13;;;22.33;;
76357;SDS011;65185;21.060;105.826;2023-07-29T11:50:03;27.13;;;21.25;;
76357;SDS011;65185;21.060;105.826;2023-07-29T11:52:32;26.85;;;21.95;;
76357;SDS011;65185;21.060;105.826;2023-07-29T11:55:00;26.83;;;22.25;;
76357;SDS011;65185;21.060;105.826;2023-07-29T11:59:55;29.38;;;23.27;;
76357;SDS011;65185;21.060;105.826;2023-07-29T12:02:21;30.55;;;23.90;;
76357;SDS011;65185;21.060;105.826;2023-07-29T12:04:51;33.15;;;25.90;;
76357;SDS011;65185;21.060;105.826;2023-07-29T12:07:18;39.78;;;27.13;;
76357;SDS011;65185;21.060;105.826;2023-07-29T12:09:46;35.53;;;26.83;;
76357;SDS011;65185;21.060;105.826;2023-07-29T12:12:13;31.98;;;26.05;;
76357;SDS011;65185;21.060;105.826;2023-07-29T12:14:42;32.38;;;27.38;;
76357;SDS011;65185;21.060;105.826;2023-07-29T12:17:11;31.35;;;25.55;;
76357;SDS011;65185;21.060;105.826;2023-07-29T12:19:38;32.67;;;25.17;;
76357;SDS011;65185;21.060;105.826;2023-07-29T12:22:07;31.48;;;24.92;;
76357;SDS011;65185;21.060;105.826;2023-07-29T12:24:36;33.97;;;26.15;;
76357;SDS011;65185;21.060;105.826;2023-07-29T12:27:04;29.10;;;23.40;;
76357;SDS011;65185;21.060;105.826;2023-07-29T12:29:32;30.98;;;23.17;;
76357;SDS011;65185;21.060;105.826;2023-07-29T12:32:05;28.70;;;22.92;;
76357;SDS011;65185;21.060;105.826;2023-07-29T12:34:32;25.08;;;21.33;;
76357;SDS011;65185;21.060;105.826;2023-07-29T12:36:59;27.90;;;21.08;;
76357;SDS011;65185;21.060;105.826;2023-07-29T12:39:29;24.98;;;20.65;;
76357;SDS011;65185;21.060;105.826;2023-07-29T12:41:57;26.90;;;18.55;;
76357;SDS011;65185;21.060;105.826;2023-07-29T12:44:29;30.40;;;18.13;;
76357;SDS011;65185;21.060;105.826;2023-07-29T12:46:57;34.55;;;19.70;;
76357;SDS011;65185;21.060;105.826;2023-07-29T12:49:24;31.00;;;22.75;;
76357;SDS011;65185;21.060;105.826;2023-07-29T12:51:50;34.70;;;26.83;;
76357;SDS011;65185;21.060;105.826;2023-07-29T12:54:17;33.13;;;25.80;;
76357;SDS011;65185;21.060;105.826;2023-07-29T12:56:43;42.42;;;30.15;;
76357;SDS011;65185;21.060;105.826;2023-07-29T12:59:10;35.60;;;29.33;;
76357;SDS011;65185;21.060;105.826;2023-07-29T13:01:36;38.78;;;29.75;;
76357;SDS011;65185;21.060;105.826;2023-07-29T13:04:03;43.30;;;32.08;;
76357;SDS011;65185;21.060;105.826;2023-07-29T13:06:29;37.17;;;28.95;;
76357;SDS011;65185;21.060;105.826;2023-07-29T13:08:56;38.95;;;30.42;;
76357;SDS011;65185;21.060;105.826;2023-07-29T13:11:22;34.00;;;27.95;;
76357;SDS011;65185;21.060;105.826;2023-07-29T13:13:49;36.40;;;28.38;;
76357;SDS011;65185;21.060;105.826;2023-07-29T13:16:16;38.22;;;29.10;;
76357;SDS011;65185;21.060;105.826;2023-07-29T13:18:43;37.67;;;29.92;;
76357;SDS011;65185;21.060;105.826;2023-07-29T13:21:10;38.22;;;30.10;;
76357;SDS011;65185;21.060;105.826;2023-07-29T13:23:36;36.28;;;29.63;;
76357;SDS011;65185;21.060;105.826;2023-07-29T13:26:03;36.05;;;28.80;;
76357;SDS011;65185;21.060;105.826;2023-07-29T13:28:29;43.42;;;31.33;;
76357;SDS011;65185;21.060;105.826;2023-07-29T13:30:56;42.25;;;30.92;;
76357;SDS011;65185;21.060;105.826;2023-07-29T13:33:23;42.42;;;30.75;;
76357;SDS011;65185;21.060;105.826;2023-07-29T13:35:49;40.15;;;30.90;;
76357;SDS011;65185;21.060;105.826;2023-07-29T13:38:16;50.33;;;38.67;;
76357;SDS011;65185;21.060;105.826;2023-07-29T13:40:42;48.67;;;33.33;;
76357;SDS011;65185;21.060;105.826;2023-07-29T13:43:09;47.95;;;35.47;;
76357;SDS011;65185;21.060;105.826;2023-07-29T13:45:35;47.05;;;35.95;;
76357;SDS011;65185;21.060;105.826;2023-07-29T13:48:02;46.40;;;32.97;;
76357;SDS011;65185;21.060;105.826;2023-07-29T13:50:29;53.75;;;37.50;;
76357;SDS011;65185;21.060;105.826;2023-07-29T13:52:56;47.80;;;34.03;;
76357;SDS011;65185;21.060;105.826;2023-07-29T13:55:23;54.30;;;36.45;;
76357;SDS011;65185;21.060;105.826;2023-07-29T13:57:49;47.65;;;33.17;;
76357;SDS011;65185;21.060;105.826;2023-07-29T14:00:18;45.88;;;32.25;;
76357;SDS011;65185;21.060;105.826;2023-07-29T14:02:44;43.90;;;33.70;;
76357;SDS011;65185;21.060;105.826;2023-07-29T14:05:11;41.08;;;30.25;;
76357;SDS011;65185;21.060;105.826;2023-07-29T14:07:37;45.05;;;32.70;;
76357;SDS011;65185;21.060;105.826;2023-07-29T14:10:04;45.65;;;33.10;;
76357;SDS011;65185;21.060;105.826;2023-07-29T14:12:30;50.97;;;33.10;;
76357;SDS011;65185;21.060;105.826;2023-07-29T14:14:57;38.50;;;28.13;;
76357;SDS011;65185;21.060;105.826;2023-07-29T14:17:23;32.70;;;24.67;;
76357;SDS011;65185;21.060;105.826;2023-07-29T14:19:50;35.38;;;25.88;;
76357;SDS011;65185;21.060;105.826;2023-07-29T14:22:16;34.08;;;22.77;;
76357;SDS011;65185;21.060;105.826;2023-07-29T14:24:43;28.50;;;20.88;;
76357;SDS011;65185;21.060;105.826;2023-07-29T14:27:09;30.00;;;20.80;;